createdAt,value
2019-03-02T00:08:34.031Z,5294.3
2019-03-02T00:18:33.322Z,5294.3
2019-03-02T00:28:35.330Z,5294.3
2019-03-02T00:38:31.892Z,5294.3
2019-03-02T00:48:31.098Z,5294.3
2019-03-02T00:58:30.304Z,5294.3
2019-03-02T01:08:31.740Z,5294.3
2019-03-02T01:18:28.717Z,5294.3
2019-03-02T01:28:27.923Z,5294.3
2019-03-02T01:38:27.133Z,5294.3
2019-03-02T01:48:27.655Z,5294.3
2019-03-02T01:58:27.984Z,5294.3
2019-03-02T02:08:26.523Z,5294.3
2019-03-02T02:18:27.217Z,5294.4
2019-03-02T02:28:23.165Z,5294.6
2019-03-02T02:38:22.367Z,5294.6
2019-03-02T02:48:26.239Z,5294.6
2019-03-02T02:58:20.779Z,5294.6
2019-03-02T03:08:19.988Z,5294.6
2019-03-02T03:18:19.193Z,5294.6
2019-03-02T03:28:18.403Z,5294.6
2019-03-02T03:38:17.601Z,5294.6
2019-03-02T03:48:17.747Z,5294.6
2019-03-02T03:58:16.012Z,5294.6
2019-03-02T04:08:15.221Z,5294.6
2019-03-02T04:18:16.300Z,5294.6
2019-03-02T04:28:13.677Z,5294.6
2019-03-02T04:38:12.835Z,5294.6
2019-03-02T04:48:12.035Z,5294.6
2019-03-02T04:58:11.889Z,5294.6
2019-03-02T05:08:10.442Z,5294.6
2019-03-02T05:18:09.648Z,5294.6
2019-03-02T05:28:08.859Z,5294.6
2019-03-02T05:38:08.059Z,5294.6
2019-03-02T05:48:07.261Z,5294.6
2019-03-02T05:58:06.462Z,5294.6
2019-03-02T06:08:05.667Z,5294.7
2019-03-02T06:18:07.654Z,5295
2019-03-02T06:28:04.081Z,5295.1
2019-03-02T06:38:03.297Z,5295.4
2019-03-02T06:48:05.836Z,5295.6
2019-03-02T06:58:01.712Z,5295.8
2019-03-02T07:08:01.744Z,5295.9
2019-03-02T07:18:01.852Z,5295.9
2019-03-02T07:28:01.763Z,5295.9
2019-03-02T07:37:59.370Z,5295.9
2019-03-02T07:48:00.102Z,5296.1
2019-03-02T07:57:57.790Z,5296.3
2019-03-02T08:07:57.010Z,5296.5
2019-03-02T08:17:56.221Z,5296.7
2019-03-02T08:27:55.426Z,5296.7
2019-03-02T08:37:54.648Z,5296.7
2019-03-02T08:47:53.849Z,5296.8
2019-03-02T08:57:53.781Z,5297
2019-03-02T09:07:52.283Z,5297.3
2019-03-02T09:17:53.779Z,5297.5
2019-03-02T09:27:50.718Z,5297.8
2019-03-02T09:37:49.937Z,5298
2019-03-02T09:47:51.826Z,5298.2
2019-03-02T09:57:48.567Z,5298.2
2019-03-02T10:07:47.590Z,5298.3
2019-03-02T10:17:46.822Z,5298.6
2019-03-02T10:27:46.957Z,5298.7
2019-03-02T10:37:45.317Z,5298.7
2019-03-02T10:47:44.461Z,5298.7
2019-03-02T10:57:43.676Z,5298.7
2019-03-02T11:07:44.791Z,5298.8
2019-03-02T11:17:42.110Z,5299
2019-03-02T11:27:41.321Z,5299.2
2019-03-02T11:37:40.537Z,5299.2
2019-03-02T11:47:39.754Z,5299.2
2019-03-02T11:57:38.972Z,5299.2
2019-03-02T12:07:38.185Z,5299.4
2019-03-02T12:17:37.790Z,5299.5
2019-03-02T12:27:36.616Z,5299.5
2019-03-02T12:37:37.256Z,5299.5
2019-03-02T12:47:35.037Z,5299.5
2019-03-02T12:57:34.247Z,5299.5
2019-03-02T13:07:33.454Z,5299.5
2019-03-02T13:17:32.985Z,5299.5
2019-03-02T13:27:31.873Z,5299.5
2019-03-02T13:37:31.081Z,5299.5
2019-03-02T13:47:30.292Z,5299.5
2019-03-02T13:57:31.817Z,5299.5
2019-03-02T14:07:31.112Z,5299.5
2019-03-02T14:17:27.924Z,5299.5
2019-03-02T14:27:27.169Z,5299.5
2019-03-02T14:37:26.329Z,5299.5
2019-03-02T14:47:25.537Z,5299.6
2019-03-02T14:57:25.677Z,5299.8
2019-03-02T15:07:23.965Z,5300.1
2019-03-02T15:17:23.176Z,5300.2
2019-03-02T15:27:22.395Z,5300.2
2019-03-02T15:37:24.159Z,5300.4
2019-03-02T15:47:20.846Z,5300.7
2019-03-02T15:57:20.045Z,5300.9
2019-03-02T16:07:19.260Z,5301.1
2019-03-02T16:17:18.478Z,5301.4
2019-03-02T16:27:17.697Z,5301.6
2019-03-02T16:37:18.186Z,5301.7
2019-03-02T16:47:16.137Z,5301.9
2019-03-02T16:57:15.353Z,5302.1
2019-03-02T17:07:14.572Z,5302.4
2019-03-02T17:17:13.799Z,5302.5
2019-03-02T17:27:13.058Z,5302.5
2019-03-02T17:37:12.226Z,5302.5
2019-03-02T17:47:11.451Z,5302.8
2019-03-02T17:57:13.879Z,5303
2019-03-02T18:07:09.876Z,5303
2019-03-02T18:17:09.093Z,5303
2019-03-02T18:27:08.308Z,5303
2019-03-02T18:37:07.535Z,5303.1
2019-03-02T18:47:06.741Z,5303.3
2019-03-02T18:57:05.959Z,5303.4
2019-03-02T19:07:05.178Z,5303.4
2019-03-02T19:17:04.390Z,5303.4
2019-03-02T19:27:03.613Z,5303.4
2019-03-02T19:37:02.821Z,5303.4
2019-03-02T19:47:02.035Z,5303.4
2019-03-02T19:57:01.250Z,5303.6
2019-03-02T20:07:00.469Z,5303.9
2019-03-02T20:16:59.714Z,5303.9
2019-03-02T20:26:58.902Z,5303.9
2019-03-02T20:36:58.118Z,5304
2019-03-02T20:46:57.331Z,5304.3
2019-03-02T20:56:56.543Z,5304.3
2019-03-02T21:14:37.040Z,5304.1
2019-03-02T21:24:36.222Z,5304.1
2019-03-02T21:34:35.433Z,5304.1
2019-03-02T21:44:34.643Z,5304.1
2019-03-02T21:54:33.853Z,5304.1
2019-03-02T22:04:33.062Z,5304.1
2019-03-02T22:14:32.309Z,5304.1
2019-03-02T22:24:31.596Z,5304.1
2019-03-02T22:34:30.884Z,5304.1
2019-03-02T22:44:30.176Z,5304.1
2019-03-02T22:54:29.461Z,5304.1
2019-03-02T23:04:28.788Z,5304.1
2019-03-02T23:14:27.961Z,5304.1
2019-03-02T23:24:27.167Z,5304.1
2019-03-02T23:34:26.378Z,5304.1
2019-03-02T23:44:25.585Z,5304.1
2019-03-02T23:54:25.930Z,5304.1
